sensor_id;sensor_type;location;lat;lon;timestamp;P1;durP1;ratioP1;P2;durP2;ratioP2
25091;SDS011;13082;52.374;4.946;2022-11-20T00:00:54;9.63;;;6.03;;
25091;SDS011;13082;52.374;4.946;2022-11-20T00:03:20;8.17;;;5.73;;
25091;SDS011;13082;52.374;4.946;2022-11-20T00:05:46;7.50;;;5.37;;
25091;SDS011;13082;52.374;4.946;2022-11-20T00:08:12;7.27;;;5.50;;
25091;SDS011;13082;52.374;4.946;2022-11-20T00:10:38;8.57;;;5.70;;
25091;SDS011;13082;52.374;4.946;2022-11-20T00:13:05;6.37;;;5.00;;
25091;SDS011;13082;52.374;4.946;2022-11-20T00:15:31;7.17;;;5.33;;
25091;SDS011;13082;52.374;4.946;2022-11-20T00:17:57;9.63;;;6.00;;
25091;SDS011;13082;52.374;4.946;2022-11-20T00:20:22;9.77;;;5.63;;
25091;SDS011;13082;52.374;4.946;2022-11-20T00:22:49;7.93;;;5.57;;
25091;SDS011;13082;52.374;4.946;2022-11-20T00:25:15;7.30;;;5.43;;
25091;SDS011;13082;52.374;4.946;2022-11-20T00:27:40;8.50;;;5.13;;
25091;SDS011;13082;52.374;4.946;2022-11-20T00:30:06;10.20;;;6.20;;
25091;SDS011;13082;52.374;4.946;2022-11-20T00:32:32;7.43;;;5.37;;
25091;SDS011;13082;52.374;4.946;2022-11-20T00:34:58;9.30;;;5.40;;
25091;SDS011;13082;52.374;4.946;2022-11-20T00:37:23;9.10;;;5.73;;
25091;SDS011;13082;52.374;4.946;2022-11-20T00:39:49;7.13;;;5.47;;
25091;SDS011;13082;52.374;4.946;2022-11-20T00:42:14;9.47;;;5.73;;
25091;SDS011;13082;52.374;4.946;2022-11-20T00:44:40;10.63;;;6.67;;
25091;SDS011;13082;52.374;4.946;2022-11-20T00:47:06;8.60;;;6.43;;
25091;SDS011;13082;52.374;4.946;2022-11-20T00:49:31;11.87;;;7.23;;
25091;SDS011;13082;52.374;4.946;2022-11-20T00:51:57;8.90;;;6.30;;
25091;SDS011;13082;52.374;4.946;2022-11-20T00:54:22;7.87;;;4.93;;
25091;SDS011;13082;52.374;4.946;2022-11-20T00:56:48;8.60;;;5.67;;
25091;SDS011;13082;52.374;4.946;2022-11-20T00:59:13;8.43;;;5.83;;
25091;SDS011;13082;52.374;4.946;2022-11-20T01:01:39;8.63;;;6.13;;
25091;SDS011;13082;52.374;4.946;2022-11-20T01:04:05;8.40;;;5.90;;
25091;SDS011;13082;52.374;4.946;2022-11-20T01:06:34;8.67;;;5.97;;
25091;SDS011;13082;52.374;4.946;2022-11-20T01:09:03;9.10;;;5.73;;
25091;SDS011;13082;52.374;4.946;2022-11-20T01:11:34;9.37;;;5.77;;
25091;SDS011;13082;52.374;4.946;2022-11-20T01:14:03;8.43;;;5.87;;
25091;SDS011;13082;52.374;4.946;2022-11-20T01:16:32;9.67;;;6.63;;
25091;SDS011;13082;52.374;4.946;2022-11-20T01:19:01;8.50;;;6.07;;
25091;SDS011;13082;52.374;4.946;2022-11-20T01:21:31;9.73;;;6.63;;
25091;SDS011;13082;52.374;4.946;2022-11-20T01:23:59;9.07;;;5.97;;
25091;SDS011;13082;52.374;4.946;2022-11-20T01:26:26;10.90;;;5.40;;
25091;SDS011;13082;52.374;4.946;2022-11-20T01:28:54;8.70;;;6.00;;
25091;SDS011;13082;52.374;4.946;2022-11-20T01:31:24;8.20;;;6.40;;
25091;SDS011;13082;52.374;4.946;2022-11-20T01:33:55;8.07;;;6.07;;
25091;SDS011;13082;52.374;4.946;2022-11-20T01:36:23;7.80;;;5.27;;
25091;SDS011;13082;52.374;4.946;2022-11-20T01:38:54;11.33;;;5.80;;
25091;SDS011;13082;52.374;4.946;2022-11-20T01:41:21;7.67;;;5.57;;
25091;SDS011;13082;52.374;4.946;2022-11-20T01:44:06;8.03;;;5.73;;
25091;SDS011;13082;52.374;4.946;2022-11-20T01:46:34;9.97;;;6.10;;
25091;SDS011;13082;52.374;4.946;2022-11-20T01:49:10;8.77;;;6.40;;
25091;SDS011;13082;52.374;4.946;2022-11-20T01:51:56;9.77;;;6.47;;
25091;SDS011;13082;52.374;4.946;2022-11-20T01:54:36;9.70;;;6.37;;
25091;SDS011;13082;52.374;4.946;2022-11-20T01:57:06;8.87;;;6.37;;
25091;SDS011;13082;52.374;4.946;2022-11-20T01:59:35;8.87;;;6.30;;
25091;SDS011;13082;52.374;4.946;2022-11-20T02:02:08;10.60;;;6.47;;
25091;SDS011;13082;52.374;4.946;2022-11-20T02:04:34;10.63;;;5.53;;
25091;SDS011;13082;52.374;4.946;2022-11-20T02:07:00;8.13;;;5.60;;
25091;SDS011;13082;52.374;4.946;2022-11-20T02:09:28;8.47;;;5.63;;
25091;SDS011;13082;52.374;4.946;2022-11-20T02:11:54;12.70;;;6.67;;
25091;SDS011;13082;52.374;4.946;2022-11-20T02:14:20;9.77;;;5.50;;
25091;SDS011;13082;52.374;4.946;2022-11-20T02:16:47;8.33;;;5.80;;
25091;SDS011;13082;52.374;4.946;2022-11-20T02:24:21;11.50;;;6.63;;
25091;SDS011;13082;52.374;4.946;2022-11-20T02:26:55;7.00;;;5.77;;
25091;SDS011;13082;52.374;4.946;2022-11-20T02:29:31;10.20;;;6.60;;
25091;SDS011;13082;52.374;4.946;2022-11-20T02:32:00;9.37;;;6.13;;
25091;SDS011;13082;52.374;4.946;2022-11-20T02:34:26;9.80;;;6.00;;
25091;SDS011;13082;52.374;4.946;2022-11-20T02:36:52;9.50;;;5.07;;
25091;SDS011;13082;52.374;4.946;2022-11-20T02:39:18;7.30;;;5.00;;
25091;SDS011;13082;52.374;4.946;2022-11-20T02:41:45;11.53;;;6.87;;
25091;SDS011;13082;52.374;4.946;2022-11-20T02:44:11;9.20;;;5.77;;
25091;SDS011;13082;52.374;4.946;2022-11-20T02:46:37;9.13;;;5.90;;
25091;SDS011;13082;52.374;4.946;2022-11-20T02:49:03;8.87;;;5.43;;
25091;SDS011;13082;52.374;4.946;2022-11-20T02:51:30;8.97;;;5.97;;
25091;SDS011;13082;52.374;4.946;2022-11-20T02:53:57;6.67;;;5.00;;
25091;SDS011;13082;52.374;4.946;2022-11-20T02:56:23;7.90;;;5.47;;
25091;SDS011;13082;52.374;4.946;2022-11-20T02:58:49;8.07;;;5.60;;
25091;SDS011;13082;52.374;4.946;2022-11-20T03:01:14;9.53;;;6.73;;
25091;SDS011;13082;52.374;4.946;2022-11-20T03:03:40;10.50;;;5.73;;
25091;SDS011;13082;52.374;4.946;2022-11-20T03:06:06;8.13;;;5.13;;
25091;SDS011;13082;52.374;4.946;2022-11-20T03:08:32;9.80;;;6.30;;
25091;SDS011;13082;52.374;4.946;2022-11-20T03:11:01;8.93;;;5.47;;
25091;SDS011;13082;52.374;4.946;2022-11-20T03:13:31;8.90;;;5.70;;
25091;SDS011;13082;52.374;4.946;2022-11-20T03:15:56;8.83;;;6.00;;
25091;SDS011;13082;52.374;4.946;2022-11-20T03:18:22;10.10;;;6.60;;
25091;SDS011;13082;52.374;4.946;2022-11-20T03:20:47;6.97;;;5.70;;
25091;SDS011;13082;52.374;4.946;2022-11-20T03:23:13;10.33;;;6.80;;
25091;SDS011;13082;52.374;4.946;2022-11-20T03:25:39;9.87;;;6.40;;
25091;SDS011;13082;52.374;4.946;2022-11-20T03:28:04;8.13;;;6.43;;
25091;SDS011;13082;52.374;4.946;2022-11-20T03:30:30;10.00;;;6.57;;
25091;SDS011;13082;52.374;4.946;2022-11-20T03:32:55;8.40;;;6.43;;
25091;SDS011;13082;52.374;4.946;2022-11-20T03:35:21;8.00;;;6.20;;
25091;SDS011;13082;52.374;4.946;2022-11-20T03:37:46;9.53;;;6.33;;
25091;SDS011;13082;52.374;4.946;2022-11-20T03:40:13;11.43;;;6.60;;
25091;SDS011;13082;52.374;4.946;2022-11-20T03:42:38;10.53;;;6.07;;
25091;SDS011;13082;52.374;4.946;2022-11-20T03:45:10;10.10;;;6.63;;
25091;SDS011;13082;52.374;4.946;2022-11-20T03:47:37;10.90;;;6.43;;
25091;SDS011;13082;52.374;4.946;2022-11-20T03:50:03;8.67;;;6.07;;
25091;SDS011;13082;52.374;4.946;2022-11-20T03:52:29;12.17;;;6.43;;
25091;SDS011;13082;52.374;4.946;2022-11-20T03:54:54;11.00;;;7.03;;
25091;SDS011;13082;52.374;4.946;2022-11-20T03:57:20;11.17;;;7.07;;
25091;SDS011;13082;52.374;4.946;2022-11-20T03:59:46;12.83;;;6.30;;
25091;SDS011;13082;52.374;4.946;2022-11-20T04:02:11;10.07;;;6.80;;
25091;SDS011;13082;52.374;4.946;2022-11-20T04:04:37;11.70;;;7.50;;
25091;SDS011;13082;52.374;4.946;2022-11-20T04:07:02;11.10;;;7.17;;
25091;SDS011;13082;52.374;4.946;2022-11-20T04:09:28;11.17;;;7.40;;
25091;SDS011;13082;52.374;4.946;2022-11-20T04:11:53;10.83;;;6.80;;
25091;SDS011;13082;52.374;4.946;2022-11-20T04:14:19;10.33;;;7.00;;
25091;SDS011;13082;52.374;4.946;2022-11-20T04:16:44;10.97;;;6.80;;
25091;SDS011;13082;52.374;4.946;2022-11-20T04:19:12;12.83;;;7.43;;
25091;SDS011;13082;52.374;4.946;2022-11-20T04:21:39;10.87;;;6.93;;
25091;SDS011;13082;52.374;4.946;2022-11-20T04:24:05;9.57;;;6.47;;
25091;SDS011;13082;52.374;4.946;2022-11-20T04:26:31;10.87;;;6.47;;
25091;SDS011;13082;52.374;4.946;2022-11-20T04:28:58;13.23;;;7.87;;
25091;SDS011;13082;52.374;4.946;2022-11-20T04:31:26;14.33;;;7.13;;
25091;SDS011;13082;52.374;4.946;2022-11-20T04:33:53;10.90;;;6.50;;
25091;SDS011;13082;52.374;4.946;2022-11-20T04:36:21;13.07;;;6.87;;
25091;SDS011;13082;52.374;4.946;2022-11-20T04:38:51;10.33;;;6.03;;
25091;SDS011;13082;52.374;4.946;2022-11-20T04:41:19;12.20;;;6.83;;
25091;SDS011;13082;52.374;4.946;2022-11-20T04:43:46;10.33;;;6.00;;
25091;SDS011;13082;52.374;4.946;2022-11-20T04:46:13;10.67;;;6.77;;
25091;SDS011;13082;52.374;4.946;2022-11-20T04:48:39;12.67;;;7.43;;
25091;SDS011;13082;52.374;4.946;2022-11-20T04:51:05;11.93;;;6.27;;
25091;SDS011;13082;52.374;4.946;2022-11-20T04:53:31;10.20;;;6.23;;
25091;SDS011;13082;52.374;4.946;2022-11-20T04:56:03;14.80;;;6.90;;
25091;SDS011;13082;52.374;4.946;2022-11-20T04:58:31;10.60;;;5.97;;
25091;SDS011;13082;52.374;4.946;2022-11-20T05:01:01;10.60;;;6.30;;
25091;SDS011;13082;52.374;4.946;2022-11-20T05:03:31;11.33;;;6.90;;
25091;SDS011;13082;52.374;4.946;2022-11-20T05:06:00;9.43;;;6.77;;
25091;SDS011;13082;52.374;4.946;2022-11-20T05:08:26;10.20;;;6.90;;
25091;SDS011;13082;52.374;4.946;2022-11-20T05:10:52;11.20;;;7.07;;
25091;SDS011;13082;52.374;4.946;2022-11-20T05:13:17;11.33;;;7.43;;
25091;SDS011;13082;52.374;4.946;2022-11-20T05:15:43;16.87;;;6.97;;
25091;SDS011;13082;52.374;4.946;2022-11-20T05:18:09;11.30;;;6.93;;
25091;SDS011;13082;52.374;4.946;2022-11-20T05:20:34;11.00;;;7.20;;
25091;SDS011;13082;52.374;4.946;2022-11-20T05:23:01;8.80;;;5.80;;
25091;SDS011;13082;52.374;4.946;2022-11-20T05:25:27;10.73;;;6.47;;
25091;SDS011;13082;52.374;4.946;2022-11-20T05:27:52;10.50;;;6.37;;
25091;SDS011;13082;52.374;4.946;2022-11-20T05:30:18;10.17;;;6.43;;
25091;SDS011;13082;52.374;4.946;2022-11-20T05:32:44;9.33;;;6.17;;
25091;SDS011;13082;52.374;4.946;2022-11-20T05:35:09;9.13;;;5.73;;
25091;SDS011;13082;52.374;4.946;2022-11-20T05:37:35;12.93;;;7.00;;
25091;SDS011;13082;52.374;4.946;2022-11-20T05:40:01;11.57;;;7.70;;
25091;SDS011;13082;52.374;4.946;2022-11-20T05:42:29;11.60;;;8.00;;
25091;SDS011;13082;52.374;4.946;2022-11-20T05:44:56;12.47;;;8.50;;
25091;SDS011;13082;52.374;4.946;2022-11-20T05:47:22;11.43;;;8.17;;
25091;SDS011;13082;52.374;4.946;2022-11-20T05:49:48;11.30;;;8.03;;
25091;SDS011;13082;52.374;4.946;2022-11-20T05:52:14;12.30;;;7.60;;
25091;SDS011;13082;52.374;4.946;2022-11-20T05:54:39;14.60;;;8.07;;
25091;SDS011;13082;52.374;4.946;2022-11-20T05:57:05;11.97;;;8.43;;
25091;SDS011;13082;52.374;4.946;2022-11-20T05:59:30;12.70;;;7.93;;
25091;SDS011;13082;52.374;4.946;2022-11-20T06:01:56;14.17;;;8.60;;
25091;SDS011;13082;52.374;4.946;2022-11-20T06:04:21;10.73;;;7.50;;
25091;SDS011;13082;52.374;4.946;2022-11-20T06:06:47;11.13;;;7.70;;
25091;SDS011;13082;52.374;4.946;2022-11-20T06:09:13;11.33;;;7.43;;
25091;SDS011;13082;52.374;4.946;2022-11-20T06:11:38;11.93;;;7.73;;
25091;SDS011;13082;52.374;4.946;2022-11-20T06:14:04;14.57;;;8.33;;
25091;SDS011;13082;52.374;4.946;2022-11-20T06:16:29;15.57;;;8.67;;
25091;SDS011;13082;52.374;4.946;2022-11-20T06:18:55;11.37;;;7.33;;
25091;SDS011;13082;52.374;4.946;2022-11-20T06:21:21;11.00;;;7.47;;
25091;SDS011;13082;52.374;4.946;2022-11-20T06:23:47;13.30;;;8.37;;
25091;SDS011;13082;52.374;4.946;2022-11-20T06:26:15;11.90;;;8.50;;
25091;SDS011;13082;52.374;4.946;2022-11-20T06:28:51;14.80;;;8.20;;
25091;SDS011;13082;52.374;4.946;2022-11-20T06:31:18;14.10;;;8.57;;
25091;SDS011;13082;52.374;4.946;2022-11-20T06:33:48;14.90;;;9.07;;
25091;SDS011;13082;52.374;4.946;2022-11-20T06:36:14;13.93;;;8.83;;
25091;SDS011;13082;52.374;4.946;2022-11-20T06:38:42;12.73;;;9.20;;
25091;SDS011;13082;52.374;4.946;2022-11-20T06:41:15;13.30;;;9.50;;
25091;SDS011;13082;52.374;4.946;2022-11-20T06:43:42;12.77;;;8.47;;
25091;SDS011;13082;52.374;4.946;2022-11-20T06:46:09;11.97;;;8.27;;
25091;SDS011;13082;52.374;4.946;2022-11-20T06:48:35;12.30;;;8.70;;
25091;SDS011;13082;52.374;4.946;2022-11-20T06:51:04;12.97;;;9.17;;
25091;SDS011;13082;52.374;4.946;2022-11-20T06:53:31;13.00;;;8.87;;
25091;SDS011;13082;52.374;4.946;2022-11-20T06:55:57;12.83;;;8.47;;
25091;SDS011;13082;52.374;4.946;2022-11-20T06:58:23;13.60;;;9.80;;
25091;SDS011;13082;52.374;4.946;2022-11-20T07:00:51;15.27;;;8.93;;
25091;SDS011;13082;52.374;4.946;2022-11-20T07:03:17;13.17;;;9.40;;
25091;SDS011;13082;52.374;4.946;2022-11-20T07:05:43;14.93;;;9.97;;
25091;SDS011;13082;52.374;4.946;2022-11-20T07:08:11;14.67;;;8.40;;
25091;SDS011;13082;52.374;4.946;2022-11-20T07:10:37;13.07;;;8.83;;
25091;SDS011;13082;52.374;4.946;2022-11-20T07:13:03;14.97;;;10.10;;
25091;SDS011;13082;52.374;4.946;2022-11-20T07:15:29;13.30;;;9.00;;
25091;SDS011;13082;52.374;4.946;2022-11-20T07:17:54;14.10;;;9.27;;
25091;SDS011;13082;52.374;4.946;2022-11-20T07:20:20;15.90;;;9.73;;
25091;SDS011;13082;52.374;4.946;2022-11-20T07:22:46;15.90;;;9.57;;
25091;SDS011;13082;52.374;4.946;2022-11-20T07:25:11;13.93;;;9.90;;
25091;SDS011;13082;52.374;4.946;2022-11-20T07:27:37;14.20;;;9.33;;
25091;SDS011;13082;52.374;4.946;2022-11-20T07:30:03;14.23;;;9.73;;
25091;SDS011;13082;52.374;4.946;2022-11-20T07:32:29;15.47;;;9.77;;
25091;SDS011;13082;52.374;4.946;2022-11-20T07:34:55;16.20;;;9.93;;
25091;SDS011;13082;52.374;4.946;2022-11-20T07:37:20;13.27;;;9.13;;
25091;SDS011;13082;52.374;4.946;2022-11-20T07:39:47;14.73;;;9.70;;
25091;SDS011;13082;52.374;4.946;2022-11-20T07:42:12;16.73;;;9.60;;
25091;SDS011;13082;52.374;4.946;2022-11-20T07:44:38;14.80;;;9.60;;
25091;SDS011;13082;52.374;4.946;2022-11-20T07:47:04;12.90;;;8.20;;
25091;SDS011;13082;52.374;4.946;2022-11-20T07:49:30;15.07;;;10.03;;
25091;SDS011;13082;52.374;4.946;2022-11-20T07:51:55;15.77;;;9.93;;
25091;SDS011;13082;52.374;4.946;2022-11-20T07:54:21;15.23;;;9.90;;
25091;SDS011;13082;52.374;4.946;2022-11-20T07:56:47;18.13;;;9.87;;
25091;SDS011;13082;52.374;4.946;2022-11-20T07:59:13;14.00;;;9.17;;
25091;SDS011;13082;52.374;4.946;2022-11-20T08:01:40;14.50;;;10.30;;
25091;SDS011;13082;52.374;4.946;2022-11-20T08:04:06;15.73;;;10.20;;
25091;SDS011;13082;52.374;4.946;2022-11-20T08:06:32;13.30;;;10.20;;
25091;SDS011;13082;52.374;4.946;2022-11-20T08:08:58;14.70;;;10.57;;
25091;SDS011;13082;52.374;4.946;2022-11-20T08:11:23;15.50;;;9.77;;
25091;SDS011;13082;52.374;4.946;2022-11-20T08:14:08;15.17;;;9.87;;
25091;SDS011;13082;52.374;4.946;2022-11-20T08:16:36;16.77;;;10.40;;
25091;SDS011;13082;52.374;4.946;2022-11-20T08:19:02;18.17;;;11.07;;
25091;SDS011;13082;52.374;4.946;2022-11-20T08:21:29;15.47;;;10.33;;
25091;SDS011;13082;52.374;4.946;2022-11-20T08:23:55;17.20;;;10.47;;
25091;SDS011;13082;52.374;4.946;2022-11-20T08:26:22;14.63;;;9.93;;
25091;SDS011;13082;52.374;4.946;2022-11-20T08:28:48;17.43;;;10.20;;
25091;SDS011;13082;52.374;4.946;2022-11-20T08:31:14;15.77;;;10.73;;
25091;SDS011;13082;52.374;4.946;2022-11-20T08:33:39;14.43;;;9.87;;
25091;SDS011;13082;52.374;4.946;2022-11-20T08:36:05;14.83;;;9.77;;
25091;SDS011;13082;52.374;4.946;2022-11-20T08:38:31;15.43;;;11.07;;
25091;SDS011;13082;52.374;4.946;2022-11-20T08:40:58;12.93;;;9.67;;
25091;SDS011;13082;52.374;4.946;2022-11-20T08:43:43;16.60;;;11.00;;
25091;SDS011;13082;52.374;4.946;2022-11-20T08:46:09;17.37;;;10.77;;
25091;SDS011;13082;52.374;4.946;2022-11-20T08:48:34;16.70;;;10.17;;
25091;SDS011;13082;52.374;4.946;2022-11-20T08:51:00;16.30;;;10.57;;
25091;SDS011;13082;52.374;4.946;2022-11-20T08:53:26;16.90;;;10.53;;
25091;SDS011;13082;52.374;4.946;2022-11-20T08:55:52;17.53;;;9.10;;
25091;SDS011;13082;52.374;4.946;2022-11-20T08:58:18;13.67;;;9.53;;
25091;SDS011;13082;52.374;4.946;2022-11-20T09:00:43;17.60;;;9.47;;
25091;SDS011;13082;52.374;4.946;2022-11-20T09:03:10;15.93;;;10.47;;
25091;SDS011;13082;52.374;4.946;2022-11-20T09:05:35;20.07;;;12.03;;
25091;SDS011;13082;52.374;4.946;2022-11-20T09:08:01;14.53;;;8.03;;
25091;SDS011;13082;52.374;4.946;2022-11-20T09:10:27;15.07;;;8.67;;
25091;SDS011;13082;52.374;4.946;2022-11-20T09:12:52;15.63;;;9.40;;
25091;SDS011;13082;52.374;4.946;2022-11-20T09:15:20;19.70;;;11.70;;
25091;SDS011;13082;52.374;4.946;2022-11-20T09:17:52;17.73;;;10.63;;
25091;SDS011;13082;52.374;4.946;2022-11-20T09:20:23;18.53;;;10.90;;
25091;SDS011;13082;52.374;4.946;2022-11-20T09:22:49;15.50;;;10.47;;
25091;SDS011;13082;52.374;4.946;2022-11-20T09:25:15;19.30;;;11.07;;
25091;SDS011;13082;52.374;4.946;2022-11-20T09:27:41;16.73;;;9.97;;
25091;SDS011;13082;52.374;4.946;2022-11-20T09:30:08;16.87;;;11.20;;
25091;SDS011;13082;52.374;4.946;2022-11-20T09:32:34;13.47;;;9.60;;
25091;SDS011;13082;52.374;4.946;2022-11-20T09:35:00;17.57;;;10.50;;
25091;SDS011;13082;52.374;4.946;2022-11-20T09:37:26;17.07;;;10.13;;
25091;SDS011;13082;52.374;4.946;2022-11-20T09:39:55;17.97;;;11.73;;
25091;SDS011;13082;52.374;4.946;2022-11-20T09:50:32;17.53;;;9.20;;
25091;SDS011;13082;52.374;4.946;2022-11-20T09:53:11;14.67;;;9.57;;
25091;SDS011;13082;52.374;4.946;2022-11-20T09:55:43;15.23;;;9.00;;
25091;SDS011;13082;52.374;4.946;2022-11-20T10:00:54;16.50;;;9.97;;
25091;SDS011;13082;52.374;4.946;2022-11-20T10:03:37;15.63;;;8.40;;
25091;SDS011;13082;52.374;4.946;2022-11-20T10:06:14;13.63;;;9.30;;
25091;SDS011;13082;52.374;4.946;2022-11-20T10:08:47;15.83;;;8.57;;
25091;SDS011;13082;52.374;4.946;2022-11-20T10:21:33;15.97;;;8.53;;
25091;SDS011;13082;52.374;4.946;2022-11-20T10:30:06;17.67;;;9.50;;
25091;SDS011;13082;52.374;4.946;2022-11-20T10:32:39;14.43;;;8.93;;
25091;SDS011;13082;52.374;4.946;2022-11-20T10:35:25;12.77;;;9.30;;
25091;SDS011;13082;52.374;4.946;2022-11-20T10:38:02;19.20;;;10.63;;
25091;SDS011;13082;52.374;4.946;2022-11-20T10:40:34;19.13;;;9.13;;
25091;SDS011;13082;52.374;4.946;2022-11-20T10:43:23;16.50;;;8.57;;
25091;SDS011;13082;52.374;4.946;2022-11-20T10:46:01;15.17;;;8.37;;
25091;SDS011;13082;52.374;4.946;2022-11-20T10:48:33;12.30;;;9.03;;
25091;SDS011;13082;52.374;4.946;2022-11-20T10:51:18;15.77;;;9.30;;
25091;SDS011;13082;52.374;4.946;2022-11-20T10:56:40;14.37;;;9.13;;
25091;SDS011;13082;52.374;4.946;2022-11-20T11:01:53;14.30;;;9.27;;
25091;SDS011;13082;52.374;4.946;2022-11-20T11:07:17;16.83;;;9.97;;
25091;SDS011;13082;52.374;4.946;2022-11-20T11:09:53;17.47;;;9.73;;
25091;SDS011;13082;52.374;4.946;2022-11-20T11:12:20;15.73;;;9.53;;
25091;SDS011;13082;52.374;4.946;2022-11-20T11:14:50;16.00;;;10.57;;
25091;SDS011;13082;52.374;4.946;2022-11-20T11:17:22;20.50;;;10.27;;
25091;SDS011;13082;52.374;4.946;2022-11-20T11:19:58;16.90;;;10.00;;
25091;SDS011;13082;52.374;4.946;2022-11-20T11:22:24;15.93;;;10.17;;
25091;SDS011;13082;52.374;4.946;2022-11-20T11:24:53;23.60;;;11.63;;
25091;SDS011;13082;52.374;4.946;2022-11-20T11:27:19;20.30;;;10.97;;
25091;SDS011;13082;52.374;4.946;2022-11-20T11:29:45;23.77;;;11.20;;
25091;SDS011;13082;52.374;4.946;2022-11-20T11:32:12;21.93;;;11.90;;
25091;SDS011;13082;52.374;4.946;2022-11-20T11:34:40;22.67;;;12.53;;
25091;SDS011;13082;52.374;4.946;2022-11-20T11:37:19;23.03;;;11.87;;
25091;SDS011;13082;52.374;4.946;2022-11-20T11:39:49;21.60;;;11.27;;
25091;SDS011;13082;52.374;4.946;2022-11-20T11:42:18;20.90;;;12.83;;
25091;SDS011;13082;52.374;4.946;2022-11-20T11:44:45;20.57;;;11.93;;
25091;SDS011;13082;52.374;4.946;2022-11-20T11:47:37;22.13;;;12.33;;
25091;SDS011;13082;52.374;4.946;2022-11-20T11:53:16;24.70;;;14.10;;
25091;SDS011;13082;52.374;4.946;2022-11-20T11:56:10;24.70;;;12.80;;
25091;SDS011;13082;52.374;4.946;2022-11-20T12:00:49;29.50;;;14.60;;
25091;SDS011;13082;52.374;4.946;2022-11-20T12:03:24;33.67;;;14.33;;
25091;SDS011;13082;52.374;4.946;2022-11-20T12:05:58;29.73;;;14.90;;
25091;SDS011;13082;52.374;4.946;2022-11-20T12:14:22;29.20;;;14.87;;
25091;SDS011;13082;52.374;4.946;2022-11-20T12:16:58;28.47;;;14.50;;
25091;SDS011;13082;52.374;4.946;2022-11-20T12:19:24;25.87;;;14.30;;
25091;SDS011;13082;52.374;4.946;2022-11-20T12:21:55;28.93;;;14.67;;
25091;SDS011;13082;52.374;4.946;2022-11-20T12:24:29;25.70;;;14.20;;
25091;SDS011;13082;52.374;4.946;2022-11-20T12:30:07;28.43;;;15.80;;
25091;SDS011;13082;52.374;4.946;2022-11-20T12:38:33;30.67;;;15.77;;
25091;SDS011;13082;52.374;4.946;2022-11-20T12:41:13;31.23;;;15.97;;
25091;SDS011;13082;52.374;4.946;2022-11-20T12:53:05;29.80;;;15.80;;
25091;SDS011;13082;52.374;4.946;2022-11-20T13:07:03;35.67;;;17.20;;
25091;SDS011;13082;52.374;4.946;2022-11-20T13:09:32;37.57;;;16.73;;
25091;SDS011;13082;52.374;4.946;2022-11-20T13:20:04;39.93;;;18.20;;
25091;SDS011;13082;52.374;4.946;2022-11-20T13:22:50;39.67;;;17.87;;
25091;SDS011;13082;52.374;4.946;2022-11-20T13:25:26;31.87;;;17.13;;
25091;SDS011;13082;52.374;4.946;2022-11-20T13:28:26;33.13;;;16.73;;
25091;SDS011;13082;52.374;4.946;2022-11-20T13:30:51;36.33;;;16.37;;
25091;SDS011;13082;52.374;4.946;2022-11-20T13:33:35;28.13;;;15.30;;
25091;SDS011;13082;52.374;4.946;2022-11-20T13:36:04;33.07;;;15.17;;
25091;SDS011;13082;52.374;4.946;2022-11-20T13:38:42;30.90;;;15.53;;
25091;SDS011;13082;52.374;4.946;2022-11-20T13:41:25;34.73;;;17.57;;
25091;SDS011;13082;52.374;4.946;2022-11-20T13:43:53;30.47;;;15.67;;
25091;SDS011;13082;52.374;4.946;2022-11-20T13:46:23;37.67;;;18.37;;
25091;SDS011;13082;52.374;4.946;2022-11-20T13:48:59;36.60;;;18.03;;
25091;SDS011;13082;52.374;4.946;2022-11-20T13:51:37;30.03;;;17.00;;
25091;SDS011;13082;52.374;4.946;2022-11-20T13:54:16;33.10;;;17.43;;
25091;SDS011;13082;52.374;4.946;2022-11-20T13:59:46;36.30;;;16.50;;
25091;SDS011;13082;52.374;4.946;2022-11-20T14:02:18;34.80;;;17.23;;
25091;SDS011;13082;52.374;4.946;2022-11-20T14:04:46;30.80;;;17.43;;
25091;SDS011;13082;52.374;4.946;2022-11-20T14:07:15;33.43;;;17.77;;
25091;SDS011;13082;52.374;4.946;2022-11-20T14:09:50;34.00;;;16.47;;
25091;SDS011;13082;52.374;4.946;2022-11-20T14:12:17;29.93;;;16.60;;
25091;SDS011;13082;52.374;4.946;2022-11-20T14:14:49;33.63;;;17.70;;
25091;SDS011;13082;52.374;4.946;2022-11-20T14:19:54;36.07;;;18.93;;
25091;SDS011;13082;52.374;4.946;2022-11-20T14:22:24;39.10;;;17.00;;
25091;SDS011;13082;52.374;4.946;2022-11-20T14:27:53;33.33;;;16.47;;
25091;SDS011;13082;52.374;4.946;2022-11-20T14:30:22;38.97;;;19.37;;
25091;SDS011;13082;52.374;4.946;2022-11-20T14:33:11;36.30;;;18.30;;
25091;SDS011;13082;52.374;4.946;2022-11-20T14:35:48;34.07;;;18.13;;
25091;SDS011;13082;52.374;4.946;2022-11-20T14:38:20;32.57;;;18.17;;
25091;SDS011;13082;52.374;4.946;2022-11-20T14:40:48;34.03;;;17.70;;
25091;SDS011;13082;52.374;4.946;2022-11-20T14:43:19;39.87;;;17.63;;
25091;SDS011;13082;52.374;4.946;2022-11-20T14:46:02;30.93;;;17.27;;
25091;SDS011;13082;52.374;4.946;2022-11-20T14:48:37;34.40;;;18.87;;
25091;SDS011;13082;52.374;4.946;2022-11-20T14:51:11;34.43;;;18.10;;
25091;SDS011;13082;52.374;4.946;2022-11-20T14:56:39;32.43;;;18.63;;
25091;SDS011;13082;52.374;4.946;2022-11-20T14:59:05;31.87;;;17.10;;
25091;SDS011;13082;52.374;4.946;2022-11-20T15:01:31;37.03;;;17.77;;
25091;SDS011;13082;52.374;4.946;2022-11-20T15:04:05;33.73;;;17.43;;
25091;SDS011;13082;52.374;4.946;2022-11-20T15:06:32;39.70;;;18.97;;
25091;SDS011;13082;52.374;4.946;2022-11-20T15:08:58;39.27;;;19.87;;
25091;SDS011;13082;52.374;4.946;2022-11-20T15:11:31;36.50;;;19.93;;
25091;SDS011;13082;52.374;4.946;2022-11-20T15:14:02;39.83;;;19.40;;
25091;SDS011;13082;52.374;4.946;2022-11-20T15:16:31;36.03;;;19.40;;
25091;SDS011;13082;52.374;4.946;2022-11-20T15:18:57;39.87;;;19.63;;
25091;SDS011;13082;52.374;4.946;2022-11-20T15:21:23;36.43;;;20.10;;
25091;SDS011;13082;52.374;4.946;2022-11-20T15:23:49;35.57;;;18.57;;
25091;SDS011;13082;52.374;4.946;2022-11-20T15:26:20;36.13;;;17.97;;
25091;SDS011;13082;52.374;4.946;2022-11-20T15:28:50;36.30;;;17.80;;
25091;SDS011;13082;52.374;4.946;2022-11-20T15:31:18;35.17;;;18.23;;
25091;SDS011;13082;52.374;4.946;2022-11-20T15:33:45;45.77;;;19.57;;
25091;SDS011;13082;52.374;4.946;2022-11-20T15:36:11;38.57;;;17.77;;
25091;SDS011;13082;52.374;4.946;2022-11-20T15:38:37;36.60;;;19.47;;
25091;SDS011;13082;52.374;4.946;2022-11-20T15:41:03;43.07;;;20.73;;
25091;SDS011;13082;52.374;4.946;2022-11-20T15:43:29;35.07;;;18.33;;
25091;SDS011;13082;52.374;4.946;2022-11-20T15:45:56;36.57;;;17.97;;
25091;SDS011;13082;52.374;4.946;2022-11-20T15:48:47;39.17;;;17.90;;
25091;SDS011;13082;52.374;4.946;2022-11-20T15:51:36;35.93;;;19.20;;
25091;SDS011;13082;52.374;4.946;2022-11-20T15:54:24;38.73;;;19.57;;
25091;SDS011;13082;52.374;4.946;2022-11-20T15:56:49;35.77;;;17.77;;
25091;SDS011;13082;52.374;4.946;2022-11-20T15:59:18;38.53;;;20.27;;
25091;SDS011;13082;52.374;4.946;2022-11-20T16:01:44;36.40;;;17.73;;
25091;SDS011;13082;52.374;4.946;2022-11-20T16:04:14;36.53;;;18.63;;
25091;SDS011;13082;52.374;4.946;2022-11-20T16:06:41;33.20;;;17.40;;
25091;SDS011;13082;52.374;4.946;2022-11-20T16:09:07;38.83;;;17.00;;
25091;SDS011;13082;52.374;4.946;2022-11-20T16:11:33;44.13;;;19.70;;
25091;SDS011;13082;52.374;4.946;2022-11-20T16:14:03;36.00;;;16.83;;
25091;SDS011;13082;52.374;4.946;2022-11-20T16:16:48;30.13;;;16.53;;
25091;SDS011;13082;52.374;4.946;2022-11-20T16:19:13;40.17;;;17.80;;
25091;SDS011;13082;52.374;4.946;2022-11-20T16:21:40;34.97;;;17.80;;
25091;SDS011;13082;52.374;4.946;2022-11-20T16:24:07;38.57;;;19.17;;